Latest Weather Observations for Port Lincoln Airport

IDS60801

Issued at 7:35 am CST Thursday 24 July 2014 (issued every 30 minutes, with the page automatically refreshed every 10 minutes)

About weather observations | Map of weather stations | Latest weather observations for SA | Other Formats
Station Details ID: 018192 Name: PORT LINCOLN AWS Lat: -34.60 Lon: 135.88 Height: 8.5 m
Data from the previous 72 hours. | See also: Recent months at Port Lincoln Airport
Date/Time
CST
Temp
°C
App
Temp
°C
Dew
Point
Rel
Hum
%
Delta-T
°C
Wind Press
QNH
hPa
Press
MSL
hPa
Rain
since 9 am
mm
Dir
 
Spd
km/h
Gust
km/h
Spd
kts
Gust
kts
24/07:30am 9.1 6.2 8.3 95 0.4 WNW 13 15 7 8 1006.4 - 12.6
24/07:00am 9.4 5.9 8.6 95 0.4 NW 17 20 9 11 1006.3 - 12.6
24/06:30am 10.2 6.8 9.1 93 0.5 W 17 20 9 11 1005.7 - 12.6
24/06:00am 10.5 7.2 9.7 95 0.4 WNW 17 20 9 11 1005.6 1005.6 12.6
24/05:30am 10.5 8.0 9.7 95 0.4 WNW 13 17 7 9 1005.2 - 12.6
24/05:01am 10.6 7.0 9.7 94 0.5 W 19 24 10 13 1005.0 - 12.6
24/05:00am 10.6 7.0 9.7 94 0.5 W 19 24 10 13 1004.9 - 12.6
24/04:51am 10.7 7.1 9.9 95 0.4 W 19 26 10 14 1004.9 - 12.6
24/04:30am 10.2 6.5 9.3 94 0.4 WNW 19 24 10 13 1004.6 - 12.6
24/04:00am 10.2 5.5 9.3 94 0.4 W 24 30 13 16 1004.2 - 12.6
24/03:30am 10.3 6.4 9.5 95 0.4 W 20 26 11 14 1004.3 - 12.6
24/03:00am 9.8 5.0 8.9 94 0.4 W 24 30 13 16 1004.1 1004.1 12.6
24/02:30am 9.6 5.8 9.0 96 0.3 W 19 24 10 13 1003.7 - 12.6
24/02:00am 10.1 7.2 9.5 96 0.3 W 15 20 8 11 1003.6 - 12.4
24/01:30am 10.3 7.4 9.8 97 0.3 SW 15 19 8 10 1003.2 - 12.4
24/01:00am 10.5 8.5 10.0 97 0.3 WSW 11 13 6 7 1003.2 - 12.4
24/12:46am 10.4 8.3 9.9 97 0.3 WSW 11 13 6 7 1003.1 - 12.4
24/12:30am 10.4 8.7 9.9 97 0.3 WSW 9 11 5 6 1003.1 - 12.4
24/12:12am 10.7 10.8 10.2 97 0.3 CALM 0 0 0 0 1003.3 - 12.4
24/12:00am 10.7 10.4 10.2 97 0.3 ENE 2 7 1 4 1003.3 1003.3 12.4
 
Date/Time
CST
Temp
°C
App
Temp
°C
Dew
Point
Rel
Hum
%
Delta-T
°C
Wind Press
QNH
hPa
Press
MSL
hPa
Rain
since 9 am
mm
Dir
 
Spd
km/h
Gust
km/h
Spd
kts
Gust
kts
23/11:30pm 10.9 9.0 10.4 97 0.3 ESE 11 19 6 10 1003.4 - 12.2
23/11:00pm 11.0 9.5 10.5 97 0.3 ENE 9 13 5 7 1003.9 - 11.4
23/10:36pm 10.9 7.4 10.3 96 0.3 ENE 19 24 10 13 1004.1 - 11.2
23/10:30pm 11.0 7.6 10.4 96 0.3 ENE 19 24 10 13 1004.0 - 11.2
23/10:22pm 10.9 8.2 10.3 96 0.3 NE 15 24 8 13 1004.1 - 11.2
23/10:00pm 10.7 8.7 10.1 96 0.3 NNE 11 15 6 8 1004.4 - 11.2
23/09:30pm 10.3 8.6 9.7 96 0.3 NNE 9 13 5 7 1004.6 - 11.0
23/09:00pm 10.4 7.9 9.8 96 0.3 NE 13 17 7 9 1005.0 1005.0 11.0
23/08:30pm 10.3 8.1 9.5 95 0.4 NE 11 13 6 7 1005.4 - 10.8
23/08:00pm 10.3 7.7 9.4 94 0.4 NE 13 19 7 10 1005.9 - 10.8
23/07:30pm 10.4 8.2 9.5 94 0.4 ENE 11 15 6 8 1006.1 - 10.2
23/07:00pm 10.9 8.7 9.3 90 0.8 NNE 11 17 6 9 1006.5 - 8.6
23/06:30pm 11.1 7.3 9.2 88 0.9 N 19 26 10 14 1006.4 - 8.6
23/06:00pm 10.3 8.0 8.9 91 0.7 NE 11 15 6 8 1005.9 1005.9 8.0
23/05:30pm 10.1 6.5 8.5 90 0.8 NNE 17 20 9 11 1005.9 - 8.0
23/05:00pm 11.0 7.1 8.6 85 1.2 NNE 19 26 10 14 1005.9 - 8.0
23/04:30pm 11.8 5.8 8.6 81 1.6 NNE 30 46 16 25 1006.2 - 8.0
23/04:28pm 12.0 6.5 9.2 83 1.4 NNE 28 46 15 25 1006.3 - 8.0
23/04:00pm 11.8 8.7 10.4 91 0.7 NNE 17 24 9 13 1006.6 - 8.0
23/03:30pm 11.6 9.5 11.0 96 0.3 NNE 13 19 7 10 1007.2 - 7.8
23/03:00pm 11.7 8.2 10.8 94 0.5 NNE 20 28 11 15 1007.5 1007.5 6.2
23/02:49pm 11.8 7.9 10.9 94 0.5 NNE 22 32 12 17 1007.5 - 5.8
23/02:36pm 11.8 7.9 10.7 93 0.6 NE 22 32 12 17 1007.5 - 5.6
23/02:30pm 11.8 7.9 10.7 93 0.6 NNE 22 30 12 16 1007.5 - 5.4
23/02:00pm 11.9 7.2 10.8 93 0.6 NNE 26 37 14 20 1007.9 - 5.2
23/01:58pm 11.8 6.7 10.5 92 0.7 NNE 28 37 15 20 1007.9 - 5.2
23/01:39pm 11.7 6.5 10.3 91 0.7 NNE 28 37 15 20 1008.4 - 4.6
23/01:30pm 12.0 5.9 10.4 90 0.8 NNE 33 43 18 23 1008.5 - 4.0
23/01:00pm 11.9 7.2 10.6 92 0.7 NNE 26 35 14 19 1008.8 - 3.8
23/12:30pm 12.0 6.4 10.2 89 0.9 NE 30 43 16 23 1009.8 - 3.4
23/12:00pm 11.9 6.7 10.3 90 0.8 NE 28 37 15 20 1010.7 1010.7 3.2
23/11:30am 11.4 6.1 10.0 91 0.7 NE 28 37 15 20 1011.7 - 3.2
23/11:00am 11.7 6.5 10.4 92 0.7 NE 28 37 15 20 1012.7 - 2.6
23/10:30am 11.6 6.4 10.3 92 0.7 NE 28 41 15 22 1013.0 - 2.4
23/10:00am 11.5 8.9 10.6 94 0.5 NE 15 28 8 15 1013.6 - 1.8
23/09:30am 10.5 7.9 9.4 93 0.5 NNE 13 19 7 10 1014.1 - 1.2
23/09:24am 10.5 7.2 9.4 93 0.5 NNE 17 28 9 15 1014.1 - 1.2
23/09:06am 10.7 6.4 9.3 91 0.7 NNE 22 28 12 15 1014.4 - 0.6
23/09:00am 10.9 6.6 9.3 90 0.8 NNE 22 28 12 15 1014.5 1014.5 1.6
23/08:30am 10.9 7.5 9.2 89 0.8 NE 17 22 9 12 1014.1 - 0.8
23/08:00am 11.2 6.8 7.5 78 1.8 NNE 20 28 11 15 1014.7 - 0.2
23/07:30am 11.2 8.2 7.5 78 1.8 NNE 13 19 7 10 1014.5 - 0.0
23/07:00am 11.1 10.5 7.4 78 1.8 CALM 0 0 0 0 1014.2 - 0.0
23/06:30am 11.6 10.5 6.7 72 2.3 ENE 2 7 1 4 1014.6 - 0.0
23/06:00am 11.3 7.8 7.0 75 2.0 ENE 15 19 8 10 1014.7 1014.7 0.0
23/05:30am 10.2 8.9 7.8 85 1.2 NNE 4 11 2 6 1014.7 - 0.0
23/05:00am 9.8 9.2 7.6 86 1.0 CALM 0 0 0 0 1015.1 - 0.0
23/04:30am 9.8 9.2 7.4 85 1.1 CALM 0 0 0 0 1015.2 - 0.0
23/04:00am 10.3 9.7 7.2 81 1.5 CALM 0 0 0 0 1015.3 - 0.0
23/03:30am 9.7 9.0 7.1 84 1.2 CALM 0 0 0 0 1015.5 - 0.0
23/03:00am 10.2 9.6 7.6 84 1.2 CALM 0 0 0 0 1015.6 1015.6 0.0
23/02:30am 10.1 9.6 8.0 87 1.0 CALM 0 0 0 0 1016.4 - 0.0
23/02:00am 8.9 8.4 8.0 94 0.4 CALM 0 0 0 0 1016.6 - 0.0
23/01:30am 8.6 8.1 7.8 95 0.4 CALM 0 0 0 0 1016.8 - 0.0
23/01:00am 8.7 8.2 7.8 94 0.4 CALM 0 0 0 0 1017.4 - 0.0
23/12:30am 8.4 7.8 7.5 94 0.4 CALM 0 0 0 0 1017.7 - 0.0
23/12:00am 8.5 7.9 7.3 92 0.6 CALM 0 0 0 0 1017.9 1017.9 0.0
 
Date/Time
CST
Temp
°C
App
Temp
°C
Dew
Point
Rel
Hum
%
Delta-T
°C
Wind Press
QNH
hPa
Press
MSL
hPa
Rain
since 9 am
mm
Dir
 
Spd
km/h
Gust
km/h
Spd
kts
Gust
kts
22/11:30pm 8.5 8.0 7.7 95 0.4 CALM 0 0 0 0 1018.4 - 0.0
22/11:00pm 8.6 8.1 7.8 95 0.4 CALM 0 0 0 0 1018.8 - 0.0
22/10:30pm 8.2 7.6 7.4 95 0.4 CALM 0 0 0 0 1019.2 - 0.0
22/10:00pm 8.2 7.6 7.6 96 0.3 CALM 0 0 0 0 1019.3 - 0.0
22/09:30pm 8.1 7.5 7.3 95 0.4 CALM 0 0 0 0 1019.1 - 0.0
22/09:00pm 8.2 7.6 7.4 95 0.4 CALM 0 0 0 0 1019.3 1019.3 0.0
22/08:30pm 8.5 8.0 7.7 95 0.4 CALM 0 0 0 0 1019.4 - 0.0
22/08:00pm 8.3 7.7 7.4 94 0.4 CALM 0 0 0 0 1019.8 - 0.0
22/07:30pm 9.0 8.5 7.8 92 0.6 CALM 0 0 0 0 1019.5 - 0.0
22/07:00pm 9.2 8.7 7.8 91 0.7 CALM 0 0 0 0 1019.7 - 0.0
22/06:30pm 10.4 9.8 9.0 91 0.7 N 2 6 1 3 1019.7 - 0.0
22/06:00pm 11.1 9.2 9.2 88 0.9 NE 9 11 5 6 1019.8 1019.8 0.0
22/05:30pm 11.3 9.1 9.4 88 1.0 ENE 11 13 6 7 1019.7 - 0.0
22/05:00pm 12.2 10.1 9.8 85 1.2 ENE 11 15 6 8 1019.4 - 0.0
22/04:30pm 13.0 9.7 9.6 80 1.7 ENE 17 20 9 11 1019.5 - 0.0
22/04:00pm 13.9 10.7 9.9 77 2.1 NE 17 20 9 11 1019.5 - 0.0
22/03:30pm 14.2 10.7 8.8 70 2.7 ENE 17 20 9 11 1019.2 - 0.0
22/03:00pm 14.5 11.4 8.9 69 2.8 ENE 15 19 8 10 1019.6 1019.6 0.0
22/02:30pm 14.6 11.7 9.6 72 2.6 E 15 19 8 10 1019.8 - 0.0
22/02:00pm 14.8 12.2 10.6 76 2.2 E 15 19 8 10 1019.9 - 0.0
22/01:30pm 14.9 12.2 10.5 75 2.3 ENE 15 17 8 9 1020.5 - 0.0
22/01:00pm 14.9 12.2 10.3 74 2.4 E 15 19 8 10 1020.9 - 0.0
22/12:30pm 14.5 11.7 9.9 74 2.4 E 15 19 8 10 1021.5 - 0.0
22/12:00pm 14.7 11.4 9.5 71 2.7 ENE 17 20 9 11 1021.9 1021.9 0.0
22/11:30am 14.7 12.3 10.1 74 2.4 ENE 13 17 7 9 1022.3 - 0.0
22/11:00am 14.7 12.6 9.9 73 2.5 ENE 11 13 6 7 1022.6 - 0.0
22/10:30am 14.1 12.1 8.5 69 2.8 NE 9 13 5 7 1023.0 - 0.0
22/10:00am 13.7 13.3 8.1 69 2.8 CALM 0 0 0 0 1023.2 - 0.0
22/09:30am 12.1 10.1 6.4 68 2.7 N 6 7 3 4 1023.1 - 0.0
22/09:00am 9.6 7.0 6.1 79 1.6 NNW 9 11 5 6 1023.0 1023.0 0.0
22/08:30am 7.9 5.6 5.7 86 1.0 NNW 7 7 4 4 1022.8 - 0.0
22/08:00am 5.9 2.7 4.9 93 0.4 NW 11 13 6 7 1022.8 - 0.0
22/07:30am 4.8 1.4 4.2 96 0.3 NW 11 13 6 7 1022.8 - 0.0
22/07:00am 4.8 1.8 4.2 96 0.3 NNW 9 11 5 6 1022.4 - 0.0
22/06:30am 5.1 1.8 4.4 95 0.3 NW 11 15 6 8 1022.0 - 0.0
22/06:00am 5.2 2.3 4.5 95 0.3 NW 9 13 5 7 1021.6 1021.6 0.0
22/05:30am 4.9 2.4 4.0 94 0.4 W 6 7 3 4 1021.6 - 0.0
22/05:00am 5.7 3.3 4.5 92 0.5 W 6 7 3 4 1021.5 - 0.0
22/04:30am 6.7 5.3 5.7 93 0.4 W 2 9 1 5 1021.5 - 0.0
22/04:00am 6.6 5.6 5.4 92 0.5 CALM 0 0 0 0 1021.4 - 0.0
22/03:30am 7.1 6.1 5.7 91 0.6 CALM 0 6 0 3 1021.4 - 0.0
22/03:00am 7.7 5.5 6.2 90 0.7 W 7 9 4 5 1021.4 1021.4 0.0
22/02:30am 7.7 5.4 5.5 86 1.0 SSW 7 9 4 5 1021.4 - 0.0
22/02:00am 7.8 6.9 5.9 88 0.9 CALM 0 0 0 0 1021.3 - 0.0
22/01:30am 8.7 7.9 6.3 85 1.1 CALM 0 0 0 0 1021.2 - 0.0
22/01:00am 8.8 7.9 6.2 84 1.2 CALM 0 0 0 0 1021.3 - 0.0
22/12:30am 9.4 8.5 5.9 79 1.6 CALM 0 0 0 0 1021.5 - 0.0
22/12:00am 9.4 7.7 6.1 80 1.5 NNW 4 11 2 6 1021.8 1021.8 0.0
 
Date/Time
CST
Temp
°C
App
Temp
°C
Dew
Point
Rel
Hum
%
Delta-T
°C
Wind Press
QNH
hPa
Press
MSL
hPa
Rain
since 9 am
mm
Dir
 
Spd
km/h
Gust
km/h
Spd
kts
Gust
kts
21/11:30pm 9.9 6.1 5.7 75 1.9 NNW 15 19 8 10 1021.8 - 0.0
21/11:00pm 9.4 6.0 6.1 80 1.5 NNW 13 15 7 8 1021.8 - 0.0
21/10:30pm 8.1 5.8 5.9 86 1.0 WNW 7 9 4 5 1021.8 - 0.0
21/10:00pm 7.1 5.5 4.6 84 1.1 N 2 9 1 5 1021.7 - 0.0
21/09:30pm 8.4 6.0 4.4 76 1.8 N 6 13 3 7 1021.6 - 0.0
21/09:00pm 10.1 7.6 4.7 69 2.4 NNW 7 13 4 7 1021.6 1021.6 0.0
21/08:30pm 9.0 6.6 5.2 77 1.7 N 7 9 4 5 1021.4 - 0.0
21/08:00pm 9.3 8.4 6.0 80 1.5 CALM 0 0 0 0 1021.2 - 0.0
21/07:30pm 8.6 6.1 6.6 87 0.9 NNE 9 13 5 7 1021.0 - 0.0
21/07:00pm 8.9 6.5 7.2 89 0.8 N 9 11 5 6 1020.9 - 0.0
21/06:30pm 9.4 7.6 7.0 85 1.1 NNE 6 11 3 6 1020.6 - 0.0
21/06:00pm 10.5 8.4 8.4 87 1.0 NNE 9 11 5 6 1020.3 1020.3 0.0
21/05:30pm 10.8 8.4 8.6 86 1.1 NE 11 17 6 9 1020.1 - 0.0
21/05:00pm 11.8 9.0 8.5 80 1.6 ENE 13 17 7 9 1020.0 - 0.0
21/04:30pm 13.5 10.6 9.6 77 2.0 ENE 15 20 8 11 1019.7 - 0.0
21/04:00pm 13.7 10.4 9.4 75 2.2 NE 17 19 9 10 1019.5 - 0.0
21/03:30pm 14.0 11.0 9.2 73 2.4 NE 15 19 8 10 1019.5 - 0.0
21/03:00pm 14.7 12.1 9.3 70 2.8 ENE 13 20 7 11 1019.2 1019.2 0.0
21/02:30pm 15.1 12.8 7.4 60 3.8 ENE 9 13 5 7 1019.3 - 0.0
21/02:00pm 15.2 13.0 9.3 68 3.0 ENE 11 15 6 8 1019.4 - 0.0
21/01:30pm 13.9 11.9 8.7 71 2.6 E 9 13 5 7 1019.7 - 0.0
21/01:00pm 13.6 11.5 8.2 70 2.7 NE 9 11 5 6 1020.0 - 0.0
21/12:30pm 12.9 10.7 8.0 72 2.4 ENE 9 11 5 6 1020.3 - 0.0
21/12:00pm 13.2 10.8 7.2 67 2.9 ENE 9 13 5 7 1020.5 1020.5 0.0
21/11:30am 13.0 10.7 7.5 69 2.7 E 9 11 5 6 1020.8 - 0.0
21/11:00am 12.9 11.2 7.4 69 2.7 NE 6 9 3 5 1021.1 - 0.0
21/10:30am 11.7 11.1 7.6 76 2.0 CALM 0 0 0 0 1021.3 - 0.0
21/10:00am 11.0 9.2 7.3 78 1.8 NE 6 9 3 5 1021.5 - 0.0
21/09:30am 11.4 10.7 7.1 75 2.1 CALM 0 0 0 0 1021.4 - 0.0
21/09:00am 9.0 8.3 7.0 87 0.9 CALM 0 0 0 0 1021.2 1021.2 0.0
21/08:30am 8.1 6.0 5.9 86 1.0 NNW 6 7 3 4 1021.2 - 0.0
21/08:00am 7.6 5.2 5.4 86 1.0 WNW 7 9 4 5 1021.0 - 0.0

Other Formats:

Comma delimited format used in spreadsheet applications
http://www.bom.gov.au/fwo/IDS60801/IDS60801.95661.axf

JavaScript Object Notation format (JSON) in row-major order
http://www.bom.gov.au/fwo/IDS60801/IDS60801.95661.json